sensor_id;sensor_type;location;lat;lon;timestamp;pressure;altitude;pressure_sealevel;temperature;humidity
35878;BME280;21982;49.804;24.072;2022-10-31T00:01:53;97609.06;;;14.53;79.58
35878;BME280;21982;49.804;24.072;2022-10-31T00:04:22;97563.72;;;14.20;79.58
35878;BME280;21982;49.804;24.072;2022-10-31T00:06:52;97611.91;;;14.45;79.68
35878;BME280;21982;49.804;24.072;2022-10-31T00:09:28;97613.09;;;14.29;79.82
35878;BME280;21982;49.804;24.072;2022-10-31T00:12:04;97544.22;;;13.80;79.67
35878;BME280;21982;49.804;24.072;2022-10-31T00:14:31;97615.53;;;14.24;80.39
35878;BME280;21982;49.804;24.072;2022-10-31T00:16:59;97617.19;;;14.25;79.92
35878;BME280;21982;49.804;24.072;2022-10-31T00:19:25;97609.19;;;14.25;79.91
35878;BME280;21982;49.804;24.072;2022-10-31T00:22:02;97614.53;;;14.31;79.76
35878;BME280;21982;49.804;24.072;2022-10-31T00:24:28;97512.66;;;13.63;79.99
35878;BME280;21982;49.804;24.072;2022-10-31T00:27:03;97571.28;;;14.09;79.43
35878;BME280;21982;49.804;24.072;2022-10-31T00:29:29;97567.81;;;14.09;79.90
35878;BME280;21982;49.804;24.072;2022-10-31T00:31:56;97599.16;;;14.27;79.51
35878;BME280;21982;49.804;24.072;2022-10-31T00:34:28;97606.13;;;14.28;79.73
35878;BME280;21982;49.804;24.072;2022-10-31T00:36:54;97618.84;;;14.39;79.76
35878;BME280;21982;49.804;24.072;2022-10-31T00:39:26;97564.75;;;14.12;78.99
35878;BME280;21982;49.804;24.072;2022-10-31T00:41:52;97548.53;;;13.94;78.93
35878;BME280;21982;49.804;24.072;2022-10-31T00:44:18;97622.53;;;14.38;79.50
35878;BME280;21982;49.804;24.072;2022-10-31T00:46:52;97617.59;;;14.35;79.04
35878;BME280;21982;49.804;24.072;2022-10-31T00:49:21;97617.59;;;14.35;79.27
35878;BME280;21982;49.804;24.072;2022-10-31T00:51:50;97618.84;;;14.32;79.61
35878;BME280;21982;49.804;24.072;2022-10-31T00:54:16;97534.81;;;13.90;78.96
35878;BME280;21982;49.804;24.072;2022-10-31T00:56:47;97611.25;;;14.36;79.28
35878;BME280;21982;49.804;24.072;2022-10-31T00:59:22;97579.72;;;14.20;79.03
35878;BME280;21982;49.804;24.072;2022-10-31T01:02:16;97617.41;;;14.36;79.01
35878;BME280;21982;49.804;24.072;2022-10-31T01:05:08;97539.72;;;13.80;79.35
35878;BME280;21982;49.804;24.072;2022-10-31T01:07:40;97480.72;;;13.44;79.26
35878;BME280;21982;49.804;24.072;2022-10-31T01:10:07;97548.13;;;13.90;79.25
35878;BME280;21982;49.804;24.072;2022-10-31T01:12:46;97616.78;;;14.34;78.73
35878;BME280;21982;49.804;24.072;2022-10-31T01:15:16;97624.56;;;14.36;78.90
35878;BME280;21982;49.804;24.072;2022-10-31T01:18:02;97571.88;;;13.98;78.78
35878;BME280;21982;49.804;24.072;2022-10-31T01:20:28;97625.59;;;14.28;78.73
35878;BME280;21982;49.804;24.072;2022-10-31T01:22:57;97615.34;;;14.32;78.60
35878;BME280;21982;49.804;24.072;2022-10-31T01:25:30;97617.00;;;14.33;78.22
35878;BME280;21982;49.804;24.072;2022-10-31T01:28:08;97334.41;;;12.50;78.60
35878;BME280;21982;49.804;24.072;2022-10-31T01:30:43;97629.88;;;14.23;79.25
35878;BME280;21982;49.804;24.072;2022-10-31T01:33:09;97278.66;;;11.95;78.72
35878;BME280;21982;49.804;24.072;2022-10-31T01:35:35;97615.53;;;14.24;78.99
35878;BME280;21982;49.804;24.072;2022-10-31T01:38:06;97611.88;;;14.31;78.79
35878;BME280;21982;49.804;24.072;2022-10-31T01:40:33;97339.13;;;12.54;78.31
35878;BME280;21982;49.804;24.072;2022-10-31T01:43:09;97649.16;;;14.25;78.73
35878;BME280;21982;49.804;24.072;2022-10-31T01:45:56;97268.03;;;11.95;78.70
35878;BME280;21982;49.804;24.072;2022-10-31T01:48:26;97284.03;;;12.08;78.43
35878;BME280;21982;49.804;24.072;2022-10-31T01:51:00;97554.63;;;13.68;78.85
35878;BME280;21982;49.804;24.072;2022-10-31T01:53:37;97618.78;;;13.99;79.15
35878;BME280;21982;49.804;24.072;2022-10-31T01:56:27;97617.56;;;13.95;79.13
35878;BME280;21982;49.804;24.072;2022-10-31T01:58:56;97630.25;;;13.93;78.96
35878;BME280;21982;49.804;24.072;2022-10-31T02:01:24;97295.88;;;11.71;79.40
35878;BME280;21982;49.804;24.072;2022-10-31T02:03:52;97354.31;;;12.13;79.37
35878;BME280;21982;49.804;24.072;2022-10-31T02:07:00;97440.69;;;12.56;79.00
35878;BME280;21982;49.804;24.072;2022-10-31T02:09:39;97460.06;;;12.91;79.67
35878;BME280;21982;49.804;24.072;2022-10-31T02:12:20;97643.31;;;13.88;79.50
35878;BME280;21982;49.804;24.072;2022-10-31T02:14:52;97625.31;;;13.90;79.71
35878;BME280;21982;49.804;24.072;2022-10-31T02:17:28;97639.25;;;13.86;80.21
35878;BME280;21982;49.804;24.072;2022-10-31T02:20:08;97323.50;;;11.84;79.51
35878;BME280;21982;49.804;24.072;2022-10-31T02:34:21;97634.53;;;13.94;79.91
35878;BME280;21982;49.804;24.072;2022-10-31T02:37:10;97638.03;;;13.95;80.00
35878;BME280;21982;49.804;24.072;2022-10-31T02:47:44;97633.09;;;13.85;80.52
35878;BME280;21982;49.804;24.072;2022-10-31T02:50:30;97629.63;;;13.85;80.10
35878;BME280;21982;49.804;24.072;2022-10-31T02:53:16;97629.41;;;13.80;80.31
35878;BME280;21982;49.804;24.072;2022-10-31T02:55:48;97628.75;;;13.71;80.13
35878;BME280;21982;49.804;24.072;2022-10-31T02:58:20;97628.31;;;13.61;80.27
35878;BME280;21982;49.804;24.072;2022-10-31T03:04:19;97633.78;;;13.53;80.78
35878;BME280;21982;49.804;24.072;2022-10-31T03:07:11;97631.13;;;13.53;80.14
35878;BME280;21982;49.804;24.072;2022-10-31T03:19:01;97586.78;;;13.19;79.82
35878;BME280;21982;49.804;24.072;2022-10-31T03:21:40;97646.28;;;13.52;79.91
35878;BME280;21982;49.804;24.072;2022-10-31T03:24:30;97607.94;;;13.33;80.37
35878;BME280;21982;49.804;24.072;2022-10-31T03:27:03;97647.44;;;13.36;80.30
35878;BME280;21982;49.804;24.072;2022-10-31T03:29:43;97646.50;;;13.51;80.39
35878;BME280;21982;49.804;24.072;2022-10-31T03:32:46;97365.94;;;11.77;80.19
35878;BME280;21982;49.804;24.072;2022-10-31T03:35:24;97163.56;;;10.58;80.05
35878;BME280;21982;49.804;24.072;2022-10-31T03:37:59;97673.50;;;13.54;80.45
35878;BME280;21982;49.804;24.072;2022-10-31T03:40:38;97592.69;;;13.14;79.75
35878;BME280;21982;49.804;24.072;2022-10-31T03:43:22;97645.06;;;13.55;79.98
35878;BME280;21982;49.804;24.072;2022-10-31T03:45:58;97640.94;;;13.52;80.38
35878;BME280;21982;49.804;24.072;2022-10-31T03:48:27;97645.25;;;13.47;80.37
35878;BME280;21982;49.804;24.072;2022-10-31T03:56:41;97652.59;;;13.45;79.99
35878;BME280;21982;49.804;24.072;2022-10-31T03:59:36;97615.38;;;13.10;79.52
35878;BME280;21982;49.804;24.072;2022-10-31T04:02:14;97655.56;;;13.28;79.64
35878;BME280;21982;49.804;24.072;2022-10-31T04:04:45;97654.72;;;13.21;80.10
35878;BME280;21982;49.804;24.072;2022-10-31T04:07:13;97651.66;;;13.24;80.25
35878;BME280;21982;49.804;24.072;2022-10-31T04:09:45;97516.75;;;12.29;80.35
35878;BME280;21982;49.804;24.072;2022-10-31T04:12:17;97597.59;;;12.83;80.42
35878;BME280;21982;49.804;24.072;2022-10-31T04:14:46;97504.66;;;12.27;80.53
35878;BME280;21982;49.804;24.072;2022-10-31T04:17:16;97317.78;;;11.03;80.13
35878;BME280;21982;49.804;24.072;2022-10-31T04:19:55;97386.56;;;11.32;80.08
35878;BME280;21982;49.804;24.072;2022-10-31T04:22:29;97661.72;;;13.01;80.26
35878;BME280;21982;49.804;24.072;2022-10-31T04:24:58;97673.66;;;13.12;80.63
35878;BME280;21982;49.804;24.072;2022-10-31T04:27:32;97676.59;;;12.95;80.06
35878;BME280;21982;49.804;24.072;2022-10-31T04:30:01;97646.47;;;12.82;80.77
35878;BME280;21982;49.804;24.072;2022-10-31T04:32:31;97686.13;;;13.11;80.36
35878;BME280;21982;49.804;24.072;2022-10-31T04:35:05;97671.59;;;13.07;80.57
35878;BME280;21982;49.804;24.072;2022-10-31T04:37:34;97653.00;;;12.86;80.35
35878;BME280;21982;49.804;24.072;2022-10-31T04:40:00;97680.09;;;12.96;80.39
35878;BME280;21982;49.804;24.072;2022-10-31T04:42:30;97683.56;;;12.96;80.62
35878;BME280;21982;49.804;24.072;2022-10-31T04:44:56;97684.13;;;12.92;80.65
35878;BME280;21982;49.804;24.072;2022-10-31T04:47:25;97685.16;;;12.91;80.35
35878;BME280;21982;49.804;24.072;2022-10-31T04:49:51;97694.53;;;12.87;80.52
35878;BME280;21982;49.804;24.072;2022-10-31T04:52:20;97686.94;;;12.84;80.67
35878;BME280;21982;49.804;24.072;2022-10-31T04:54:49;97688.16;;;12.81;80.48
35878;BME280;21982;49.804;24.072;2022-10-31T04:57:48;97686.13;;;12.83;79.96
35878;BME280;21982;49.804;24.072;2022-10-31T05:00:23;97661.22;;;12.63;80.25
35878;BME280;21982;49.804;24.072;2022-10-31T05:02:56;97691.66;;;12.60;80.01
35878;BME280;21982;49.804;24.072;2022-10-31T05:05:41;97654.38;;;12.47;79.98
35878;BME280;21982;49.804;24.072;2022-10-31T05:08:09;97643.63;;;12.34;80.33
35878;BME280;21982;49.804;24.072;2022-10-31T05:10:35;97485.47;;;11.33;80.35
35878;BME280;21982;49.804;24.072;2022-10-31T05:13:03;97571.69;;;11.86;80.29
35878;BME280;21982;49.804;24.072;2022-10-31T05:15:35;97697.84;;;12.67;80.71
35878;BME280;21982;49.804;24.072;2022-10-31T05:18:05;97263.97;;;10.02;80.05
35878;BME280;21982;49.804;24.072;2022-10-31T05:20:34;97714.06;;;12.72;80.19
35878;BME280;21982;49.804;24.072;2022-10-31T05:23:05;97456.59;;;11.23;80.16
35878;BME280;21982;49.804;24.072;2022-10-31T05:25:32;97727.78;;;12.76;80.79
35878;BME280;21982;49.804;24.072;2022-10-31T05:28:01;97628.06;;;12.31;80.51
35878;BME280;21982;49.804;24.072;2022-10-31T05:30:29;97705.94;;;12.81;80.28
35878;BME280;21982;49.804;24.072;2022-10-31T05:32:59;97707.78;;;12.80;80.09
35878;BME280;21982;49.804;24.072;2022-10-31T05:35:33;97702.47;;;12.80;80.21
35878;BME280;21982;49.804;24.072;2022-10-31T05:38:02;97602.56;;;12.08;80.29
35878;BME280;21982;49.804;24.072;2022-10-31T05:40:37;97698.56;;;12.76;80.61
35878;BME280;21982;49.804;24.072;2022-10-31T05:43:02;97706.16;;;12.79;80.65
35878;BME280;21982;49.804;24.072;2022-10-31T05:45:34;97631.41;;;12.39;80.14
35878;BME280;21982;49.804;24.072;2022-10-31T05:48:01;97611.63;;;12.21;80.31
35878;BME280;21982;49.804;24.072;2022-10-31T05:50:33;97711.28;;;12.81;80.18
35878;BME280;21982;49.804;24.072;2022-10-31T05:53:03;97672.44;;;12.58;80.13
35878;BME280;21982;49.804;24.072;2022-10-31T05:55:33;97620.69;;;12.26;80.54
35878;BME280;21982;49.804;24.072;2022-10-31T05:58:04;97718.19;;;13.03;79.98
35878;BME280;21982;49.804;24.072;2022-10-31T06:00:47;97683.69;;;12.82;80.26
35878;BME280;21982;49.804;24.072;2022-10-31T06:03:32;97722.72;;;13.09;79.42
35878;BME280;21982;49.804;24.072;2022-10-31T06:05:57;97728.81;;;13.03;79.81
35878;BME280;21982;49.804;24.072;2022-10-31T06:08:23;97593.69;;;12.23;79.67
35878;BME280;21982;49.804;24.072;2022-10-31T06:10:50;97688.81;;;12.90;79.77
35878;BME280;21982;49.804;24.072;2022-10-31T06:13:22;97731.00;;;13.21;79.51
35878;BME280;21982;49.804;24.072;2022-10-31T06:15:50;97726.69;;;13.20;79.23
35878;BME280;21982;49.804;24.072;2022-10-31T06:18:19;97715.75;;;13.08;79.35
35878;BME280;21982;49.804;24.072;2022-10-31T06:20:45;97702.38;;;13.16;79.60
35878;BME280;21982;49.804;24.072;2022-10-31T06:23:16;97594.69;;;12.43;78.89
35878;BME280;21982;49.804;24.072;2022-10-31T06:25:54;97613.34;;;12.56;79.21
35878;BME280;21982;49.804;24.072;2022-10-31T06:28:23;97436.78;;;11.62;79.20
35878;BME280;21982;49.804;24.072;2022-10-31T06:30:54;97745.13;;;13.56;79.15
35878;BME280;21982;49.804;24.072;2022-10-31T06:33:23;97739.03;;;13.62;78.82
35878;BME280;21982;49.804;24.072;2022-10-31T06:35:49;97279.44;;;10.78;78.63
35878;BME280;21982;49.804;24.072;2022-10-31T06:38:15;97750.56;;;13.69;79.16
35878;BME280;21982;49.804;24.072;2022-10-31T06:40:44;97726.75;;;13.61;79.04
35878;BME280;21982;49.804;24.072;2022-10-31T06:43:10;97750.16;;;13.72;78.32
35878;BME280;21982;49.804;24.072;2022-10-31T06:45:39;97755.75;;;13.84;78.75
35878;BME280;21982;49.804;24.072;2022-10-31T06:48:06;97719.06;;;13.79;78.24
35878;BME280;21982;49.804;24.072;2022-10-31T06:50:35;97746.44;;;14.07;78.01
35878;BME280;21982;49.804;24.072;2022-10-31T06:53:07;97599.41;;;13.10;77.88
35878;BME280;21982;49.804;24.072;2022-10-31T06:55:33;97758.69;;;14.02;77.97
35878;BME280;21982;49.804;24.072;2022-10-31T06:58:11;97757.69;;;14.09;77.40
35878;BME280;21982;49.804;24.072;2022-10-31T07:00:42;97596.19;;;12.87;77.71
35878;BME280;21982;49.804;24.072;2022-10-31T07:03:35;97779.06;;;14.29;76.88
35878;BME280;21982;49.804;24.072;2022-10-31T07:06:27;97259.81;;;11.21;76.63
35878;BME280;21982;49.804;24.072;2022-10-31T07:08:58;97756.94;;;14.29;76.72
35878;BME280;21982;49.804;24.072;2022-10-31T07:11:47;97459.25;;;12.43;76.25
35878;BME280;21982;49.804;24.072;2022-10-31T07:14:13;97757.72;;;14.16;76.82
35878;BME280;21982;49.804;24.072;2022-10-31T07:16:41;97759.38;;;14.17;76.71
35878;BME280;21982;49.804;24.072;2022-10-31T07:19:18;97700.69;;;13.84;76.38
35878;BME280;21982;49.804;24.072;2022-10-31T07:21:49;97465.84;;;12.60;75.47
35878;BME280;21982;49.804;24.072;2022-10-31T07:24:16;97747.31;;;14.28;75.58
35878;BME280;21982;49.804;24.072;2022-10-31T07:26:42;97587.44;;;13.27;75.41
35878;BME280;21982;49.804;24.072;2022-10-31T07:29:26;97480.25;;;12.38;75.58
35878;BME280;21982;49.804;24.072;2022-10-31T07:31:58;97497.22;;;12.78;75.06
35878;BME280;21982;49.804;24.072;2022-10-31T07:34:32;97733.88;;;14.49;74.81
35878;BME280;21982;49.804;24.072;2022-10-31T07:37:07;97722.63;;;14.80;74.44
35878;BME280;21982;49.804;24.072;2022-10-31T07:39:39;97770.63;;;15.26;73.61
35878;BME280;21982;49.804;24.072;2022-10-31T07:42:10;97568.16;;;13.86;73.45
35878;BME280;21982;49.804;24.072;2022-10-31T07:44:51;97530.25;;;13.58;73.26
35878;BME280;21982;49.804;24.072;2022-10-31T07:47:17;97792.56;;;14.95;73.27
35878;BME280;21982;49.804;24.072;2022-10-31T07:49:46;97767.97;;;15.00;73.29
35878;BME280;21982;49.804;24.072;2022-10-31T07:52:12;97703.34;;;14.65;73.65
35878;BME280;21982;49.804;24.072;2022-10-31T07:54:44;97748.69;;;14.98;73.57
35878;BME280;21982;49.804;24.072;2022-10-31T07:57:25;97506.69;;;13.55;73.03
35878;BME280;21982;49.804;24.072;2022-10-31T07:59:54;97460.47;;;13.49;72.61
35878;BME280;21982;49.804;24.072;2022-10-31T08:02:20;97767.53;;;15.42;72.52
35878;BME280;21982;49.804;24.072;2022-10-31T08:04:46;97693.94;;;14.89;72.62
35878;BME280;21982;49.804;24.072;2022-10-31T08:07:12;97773.50;;;15.45;72.48
35878;BME280;21982;49.804;24.072;2022-10-31T08:09:38;97779.84;;;15.43;72.30
35878;BME280;21982;49.804;24.072;2022-10-31T08:12:13;97781.28;;;15.39;72.35
35878;BME280;21982;49.804;24.072;2022-10-31T08:14:39;97572.72;;;14.12;72.03
35878;BME280;21982;49.804;24.072;2022-10-31T08:17:05;97697.19;;;15.04;72.18
35878;BME280;21982;49.804;24.072;2022-10-31T08:19:30;97769.78;;;15.52;71.93
35878;BME280;21982;49.804;24.072;2022-10-31T08:22:10;97786.63;;;15.72;71.85
35878;BME280;21982;49.804;24.072;2022-10-31T08:24:37;97794.41;;;15.81;71.41
35878;BME280;21982;49.804;24.072;2022-10-31T08:27:08;97759.09;;;15.72;71.05
35878;BME280;21982;49.804;24.072;2022-10-31T08:29:37;97797.63;;;16.02;71.20
35878;BME280;21982;49.804;24.072;2022-10-31T08:32:17;97796.31;;;16.25;70.14
35878;BME280;21982;49.804;24.072;2022-10-31T08:34:43;97801.41;;;16.33;70.41
35878;BME280;21982;49.804;24.072;2022-10-31T08:37:12;97719.13;;;16.03;69.57
35878;BME280;21982;49.804;24.072;2022-10-31T08:39:47;97760.84;;;16.49;68.89
35878;BME280;21982;49.804;24.072;2022-10-31T08:42:18;97799.97;;;16.82;68.79
35878;BME280;21982;49.804;24.072;2022-10-31T08:44:44;97801.53;;;16.96;68.01
35878;BME280;21982;49.804;24.072;2022-10-31T08:47:13;97739.63;;;16.54;67.76
35878;BME280;21982;49.804;24.072;2022-10-31T08:49:45;97695.03;;;16.48;66.97
35878;BME280;21982;49.804;24.072;2022-10-31T08:52:11;97554.41;;;15.59;66.97
35878;BME280;21982;49.804;24.072;2022-10-31T08:54:51;97660.47;;;16.53;66.66
35878;BME280;21982;49.804;24.072;2022-10-31T08:57:23;97809.72;;;17.51;66.33
35878;BME280;21982;49.804;24.072;2022-10-31T08:59:58;97831.25;;;17.62;65.96
35878;BME280;21982;49.804;24.072;2022-10-31T09:02:27;97542.03;;;15.96;65.74
35878;BME280;21982;49.804;24.072;2022-10-31T09:04:53;97813.63;;;17.98;65.06
35878;BME280;21982;49.804;24.072;2022-10-31T09:07:22;97819.94;;;18.03;64.77
35878;BME280;21982;49.804;24.072;2022-10-31T09:09:53;97673.31;;;17.19;64.05
35878;BME280;21982;49.804;24.072;2022-10-31T09:12:21;97554.34;;;16.29;63.68
35878;BME280;21982;49.804;24.072;2022-10-31T09:14:52;97811.47;;;18.06;63.69
35878;BME280;21982;49.804;24.072;2022-10-31T09:17:19;97833.72;;;18.07;63.34
35878;BME280;21982;49.804;24.072;2022-10-31T09:19:44;97762.25;;;17.83;63.23
35878;BME280;21982;49.804;24.072;2022-10-31T09:22:10;97702.84;;;17.49;63.22
35878;BME280;21982;49.804;24.072;2022-10-31T09:24:35;97692.94;;;17.50;62.87
35878;BME280;21982;49.804;24.072;2022-10-31T09:27:04;97706.44;;;17.61;62.53
35878;BME280;21982;49.804;24.072;2022-10-31T09:29:33;97723.94;;;17.82;62.36
35878;BME280;21982;49.804;24.072;2022-10-31T09:32:02;97579.75;;;16.88;61.86
35878;BME280;21982;49.804;24.072;2022-10-31T09:34:31;97860.59;;;18.55;62.43
35878;BME280;21982;49.804;24.072;2022-10-31T09:36:57;97841.13;;;18.78;61.76
35878;BME280;21982;49.804;24.072;2022-10-31T09:39:27;97812.63;;;18.95;61.23
35878;BME280;21982;49.804;24.072;2022-10-31T09:42:03;97811.97;;;19.12;60.31
35878;BME280;21982;49.804;24.072;2022-10-31T09:44:34;97814.41;;;19.13;60.26
35878;BME280;21982;49.804;24.072;2022-10-31T09:47:15;97684.38;;;18.44;59.62
35878;BME280;21982;49.804;24.072;2022-10-31T09:52:17;97809.25;;;19.53;58.97
35878;BME280;21982;49.804;24.072;2022-10-31T09:55:18;97811.03;;;19.71;58.90
35878;BME280;21982;49.804;24.072;2022-10-31T09:57:46;97763.59;;;19.53;58.44
35878;BME280;21982;49.804;24.072;2022-10-31T10:00:22;97410.66;;;17.46;57.71
35878;BME280;21982;49.804;24.072;2022-10-31T10:06:06;97814.81;;;20.22;57.22
35878;BME280;21982;49.804;24.072;2022-10-31T10:08:36;97816.78;;;20.26;57.47
35878;BME280;21982;49.804;24.072;2022-10-31T10:14:50;97815.66;;;20.62;56.89
35878;BME280;21982;49.804;24.072;2022-10-31T10:19:58;97828.03;;;22.64;55.09
35878;BME280;21982;49.804;24.072;2022-10-31T10:25:23;97748.22;;;24.17;51.05
35878;BME280;21982;49.804;24.072;2022-10-31T10:33:22;97686.16;;;25.13;49.91
35878;BME280;21982;49.804;24.072;2022-10-31T10:35:50;97832.56;;;26.69;47.83
35878;BME280;21982;49.804;24.072;2022-10-31T10:38:37;97680.97;;;26.32;46.63
35878;BME280;21982;49.804;24.072;2022-10-31T10:41:16;97834.88;;;27.79;44.67
35878;BME280;21982;49.804;24.072;2022-10-31T10:43:43;97698.72;;;27.31;43.34
35878;BME280;21982;49.804;24.072;2022-10-31T10:49:31;97830.72;;;27.14;43.81
35878;BME280;21982;49.804;24.072;2022-10-31T10:54:50;97836.75;;;26.46;44.55
35878;BME280;21982;49.804;24.072;2022-10-31T11:00:01;97539.28;;;25.11;43.38
35878;BME280;21982;49.804;24.072;2022-10-31T11:02:32;97824.50;;;27.47;42.76
35878;BME280;21982;49.804;24.072;2022-10-31T11:05:00;97826.63;;;27.89;41.89
35878;BME280;21982;49.804;24.072;2022-10-31T11:07:40;97816.31;;;28.39;41.39
35878;BME280;21982;49.804;24.072;2022-10-31T11:10:14;97820.19;;;28.99;40.11
35878;BME280;21982;49.804;24.072;2022-10-31T11:12:40;97613.97;;;28.15;39.00
35878;BME280;21982;49.804;24.072;2022-10-31T11:15:35;97772.66;;;29.57;38.59
35878;BME280;21982;49.804;24.072;2022-10-31T11:18:02;97770.59;;;29.49;37.61
35878;BME280;21982;49.804;24.072;2022-10-31T11:20:33;97643.09;;;29.08;37.00
35878;BME280;21982;49.804;24.072;2022-10-31T11:23:19;97629.13;;;28.96;37.41
35878;BME280;21982;49.804;24.072;2022-10-31T11:26:00;97477.28;;;27.80;37.55
35878;BME280;21982;49.804;24.072;2022-10-31T11:28:27;97807.69;;;29.82;37.26
35878;BME280;21982;49.804;24.072;2022-10-31T11:31:23;97798.53;;;29.59;37.62
35878;BME280;21982;49.804;24.072;2022-10-31T11:34:06;97801.72;;;29.48;37.23
35878;BME280;21982;49.804;24.072;2022-10-31T11:36:37;97690.56;;;28.69;37.39
35878;BME280;21982;49.804;24.072;2022-10-31T11:39:17;97795.16;;;29.49;37.11
35878;BME280;21982;49.804;24.072;2022-10-31T11:41:49;97736.50;;;29.32;36.98
35878;BME280;21982;49.804;24.072;2022-10-31T11:44:22;97806.75;;;30.19;36.23
35878;BME280;21982;49.804;24.072;2022-10-31T11:46:57;97797.75;;;30.05;39.03
35878;BME280;21982;49.804;24.072;2022-10-31T11:49:30;97803.75;;;29.88;40.73
35878;BME280;21982;49.804;24.072;2022-10-31T11:52:00;97602.69;;;29.10;37.17
35878;BME280;21982;49.804;24.072;2022-10-31T11:54:52;97623.47;;;29.66;35.99
35878;BME280;21982;49.804;24.072;2022-10-31T11:57:55;97771.31;;;30.83;36.21
35878;BME280;21982;49.804;24.072;2022-10-31T12:00:37;97684.44;;;30.16;35.22
35878;BME280;21982;49.804;24.072;2022-10-31T12:08:51;97765.56;;;30.16;35.40
35878;BME280;21982;49.804;24.072;2022-10-31T12:14:23;97700.81;;;29.89;35.13
35878;BME280;21982;49.804;24.072;2022-10-31T12:17:38;97599.44;;;28.94;35.16
35878;BME280;21982;49.804;24.072;2022-10-31T12:23:03;97792.50;;;30.09;35.01
35878;BME280;21982;49.804;24.072;2022-10-31T12:25:40;97787.22;;;30.26;34.98
35878;BME280;21982;49.804;24.072;2022-10-31T12:31:36;97794.91;;;30.51;35.11
35878;BME280;21982;49.804;24.072;2022-10-31T12:37:35;97709.91;;;29.84;34.81
35878;BME280;21982;49.804;24.072;2022-10-31T12:40:45;97790.28;;;30.11;34.92
35878;BME280;21982;49.804;24.072;2022-10-31T12:54:32;97782.59;;;29.80;34.16
35878;BME280;21982;49.804;24.072;2022-10-31T12:57:13;97777.44;;;29.65;34.05
35878;BME280;21982;49.804;24.072;2022-10-31T12:59:53;97662.44;;;28.93;34.44
35878;BME280;21982;49.804;24.072;2022-10-31T13:08:05;97773.34;;;29.49;33.85
35878;BME280;21982;49.804;24.072;2022-10-31T13:11:08;97780.66;;;29.34;34.20
35878;BME280;21982;49.804;24.072;2022-10-31T13:16:33;97775.75;;;28.99;34.80
35878;BME280;21982;49.804;24.072;2022-10-31T13:19:07;97645.22;;;27.98;34.79
35878;BME280;21982;49.804;24.072;2022-10-31T13:30:23;97785.13;;;27.40;35.94
35878;BME280;21982;49.804;24.072;2022-10-31T13:32:58;97777.84;;;26.91;36.64
35878;BME280;21982;49.804;24.072;2022-10-31T13:44:13;97782.34;;;25.36;38.76
35878;BME280;21982;49.804;24.072;2022-10-31T13:46:50;97376.00;;;22.35;39.31
35878;BME280;21982;49.804;24.072;2022-10-31T13:54:46;97701.16;;;23.65;40.77
35878;BME280;21982;49.804;24.072;2022-10-31T13:59:54;97777.31;;;23.20;42.25
35878;BME280;21982;49.804;24.072;2022-10-31T14:02:33;97777.75;;;22.80;42.53
35878;BME280;21982;49.804;24.072;2022-10-31T14:05:25;97784.09;;;22.25;43.49
35878;BME280;21982;49.804;24.072;2022-10-31T14:08:05;97780.59;;;21.86;44.47
35878;BME280;21982;49.804;24.072;2022-10-31T14:10:57;97808.41;;;21.53;45.38
35878;BME280;21982;49.804;24.072;2022-10-31T14:13:37;97637.03;;;20.35;45.59
35878;BME280;21982;49.804;24.072;2022-10-31T14:16:30;97781.66;;;21.01;46.19
35878;BME280;21982;49.804;24.072;2022-10-31T14:19:16;97504.81;;;18.96;46.96
35878;BME280;21982;49.804;24.072;2022-10-31T14:21:50;97625.09;;;19.22;47.52
35878;BME280;21982;49.804;24.072;2022-10-31T14:29:53;97279.16;;;16.40;49.40
35878;BME280;21982;49.804;24.072;2022-10-31T14:32:27;97338.84;;;16.34;49.99
35878;BME280;21982;49.804;24.072;2022-10-31T14:34:58;97800.53;;;19.16;50.52
35878;BME280;21982;49.804;24.072;2022-10-31T14:51:16;97771.53;;;17.62;53.89
35878;BME280;21982;49.804;24.072;2022-10-31T14:53:52;97791.03;;;17.44;54.74
35878;BME280;21982;49.804;24.072;2022-10-31T14:56:37;97520.16;;;15.50;54.73
35878;BME280;21982;49.804;24.072;2022-10-31T14:59:14;97226.94;;;13.64;55.37
35878;BME280;21982;49.804;24.072;2022-10-31T15:02:01;97783.06;;;16.88;55.92
35878;BME280;21982;49.804;24.072;2022-10-31T15:04:51;97781.31;;;16.68;56.41
35878;BME280;21982;49.804;24.072;2022-10-31T15:07:23;97783.22;;;16.55;57.27
35878;BME280;21982;49.804;24.072;2022-10-31T15:10:00;97697.16;;;16.01;57.30
35878;BME280;21982;49.804;24.072;2022-10-31T15:12:32;97794.59;;;16.37;58.05
35878;BME280;21982;49.804;24.072;2022-10-31T15:15:27;97791.41;;;16.22;57.88
35878;BME280;21982;49.804;24.072;2022-10-31T15:18:05;97789.81;;;16.07;58.76
35878;BME280;21982;49.804;24.072;2022-10-31T15:20:45;97765.44;;;15.78;59.31
35878;BME280;21982;49.804;24.072;2022-10-31T15:23:23;97512.06;;;14.21;59.62
35878;BME280;21982;49.804;24.072;2022-10-31T15:26:03;97376.69;;;13.05;59.95
35878;BME280;21982;49.804;24.072;2022-10-31T15:28:30;97811.06;;;15.63;60.90
35878;BME280;21982;49.804;24.072;2022-10-31T15:31:01;97544.22;;;13.80;60.67
35878;BME280;21982;49.804;24.072;2022-10-31T15:33:32;97739.44;;;14.94;61.08
35878;BME280;21982;49.804;24.072;2022-10-31T15:36:21;97802.03;;;15.37;61.34
35878;BME280;21982;49.804;24.072;2022-10-31T15:39:14;97664.78;;;14.41;61.06
35878;BME280;21982;49.804;24.072;2022-10-31T15:41:56;97548.91;;;13.71;61.17
35878;BME280;21982;49.804;24.072;2022-10-31T15:44:36;97805.13;;;15.21;61.52
35878;BME280;21982;49.804;24.072;2022-10-31T15:47:28;97810.66;;;15.13;61.37
35878;BME280;21982;49.804;24.072;2022-10-31T15:49:56;97633.69;;;13.87;62.28
35878;BME280;21982;49.804;24.072;2022-10-31T15:52:44;97327.59;;;11.86;61.80
35878;BME280;21982;49.804;24.072;2022-10-31T15:55:29;97670.88;;;14.15;61.95
35878;BME280;21982;49.804;24.072;2022-10-31T15:58:01;97808.56;;;14.95;62.41